createdAt,value
2019-05-07T00:00:03.390Z,1004.1
2019-05-07T00:05:02.626Z,1004.09
2019-05-07T00:10:03.363Z,1004.1
2019-05-07T00:15:04.457Z,1004.02
2019-05-07T00:20:02.330Z,1003.97
2019-05-07T00:25:03.118Z,1003.91
2019-05-07T00:30:02.915Z,1003.93
2019-05-07T00:35:02.526Z,1003.83
2019-05-07T00:40:02.722Z,1003.83
2019-05-07T00:45:14.363Z,1003.82
2019-05-07T00:50:03.288Z,1003.79
2019-05-07T00:55:02.908Z,1003.77
2019-05-07T01:00:02.188Z,1003.76
2019-05-07T01:05:03.001Z,1003.73
2019-05-07T01:10:02.223Z,1003.73
2019-05-07T01:15:02.901Z,1003.68
2019-05-07T01:20:02.911Z,1003.69
2019-05-07T01:25:02.290Z,1003.69
2019-05-07T01:30:02.643Z,1003.69
2019-05-07T01:35:02.587Z,1003.71
2019-05-07T01:40:03.057Z,1003.75
2019-05-07T01:45:02.329Z,1003.71
2019-05-07T01:50:03.052Z,1003.74
2019-05-07T01:55:03.213Z,1003.65
2019-05-07T02:00:02.658Z,1003.65
2019-05-07T02:05:03.157Z,1003.65
2019-05-07T02:10:02.829Z,1003.65
2019-05-07T02:15:02.718Z,1003.65
2019-05-07T02:20:02.602Z,1003.65
2019-05-07T02:25:03.326Z,1003.65
2019-05-07T02:30:04.062Z,1003.57
2019-05-07T02:35:04.142Z,1003.55
2019-05-07T02:40:04.529Z,1003.58
2019-05-07T02:45:04.067Z,1003.56
2019-05-07T02:50:03.027Z,1003.58
2019-05-07T02:55:03.845Z,1003.6
2019-05-07T03:00:04.444Z,1003.53
2019-05-07T03:05:05.024Z,1003.55
2019-05-07T03:10:03.492Z,1003.51
2019-05-07T03:15:04.445Z,1003.5
2019-05-07T03:20:03.175Z,1003.55
2019-05-07T03:25:03.380Z,1003.57
2019-05-07T03:30:04.359Z,1003.57
2019-05-07T03:35:06.573Z,1003.5
2019-05-07T03:40:03.855Z,1003.5
2019-05-07T03:45:03.618Z,1003.42
2019-05-07T03:50:03.275Z,1003.41
2019-05-07T03:55:03.748Z,1003.36
2019-05-07T04:00:04.216Z,1003.39
2019-05-07T04:05:04.305Z,1003.38
2019-05-07T04:10:04.335Z,1003.38
2019-05-07T04:15:03.403Z,1003.43
2019-05-07T04:20:04.500Z,1003.4
2019-05-07T04:25:04.405Z,1003.37
2019-05-07T04:30:03.827Z,1003.4
2019-05-07T04:35:03.893Z,1003.38
2019-05-07T04:40:03.321Z,1003.4
2019-05-07T04:45:04.207Z,1003.36
2019-05-07T04:50:03.787Z,1003.36
2019-05-07T04:55:04.143Z,1003.4
2019-05-07T05:00:03.352Z,1003.39
2019-05-07T05:05:03.273Z,1003.37
2019-05-07T05:10:02.823Z,1003.38
2019-05-07T05:15:02.244Z,1003.39
2019-05-07T05:20:03.617Z,1003.4
2019-05-07T05:25:02.529Z,1003.41
2019-05-07T05:30:03.080Z,1003.48
2019-05-07T05:35:03.312Z,1003.48
2019-05-07T05:40:06.241Z,1003.47
2019-05-07T05:45:02.142Z,1003.47
2019-05-07T05:50:01.937Z,1003.49
2019-05-07T05:55:02.520Z,1003.48
2019-05-07T06:00:02.553Z,1003.48
2019-05-07T06:05:02.246Z,1003.47
2019-05-07T06:10:02.569Z,1003.46
2019-05-07T06:15:01.886Z,1003.38
2019-05-07T06:20:02.910Z,1003.44
2019-05-07T06:25:02.325Z,1003.53
2019-05-07T06:30:04.516Z,1003.5
2019-05-07T06:35:03.146Z,1003.54
2019-05-07T06:40:02.632Z,1003.58
2019-05-07T06:45:02.929Z,1003.55
2019-05-07T06:50:03.175Z,1003.53
2019-05-07T06:55:03.364Z,1003.53
2019-05-07T07:00:02.702Z,1003.47
2019-05-07T07:05:02.837Z,1003.54
2019-05-07T07:10:02.669Z,1003.49
2019-05-07T07:15:02.772Z,1003.49
2019-05-07T07:20:02.364Z,1003.41
2019-05-07T07:25:02.536Z,1003.35
2019-05-07T07:30:02.379Z,1003.28
2019-05-07T07:35:02.385Z,1003.25
2019-05-07T07:40:02.106Z,1003.28
2019-05-07T07:45:02.992Z,1003.24
2019-05-07T07:50:02.299Z,1003.2
2019-05-07T07:55:02.180Z,1003.24
2019-05-07T08:00:02.561Z,1003.22
2019-05-07T08:05:02.156Z,1003.18
2019-05-07T08:10:02.592Z,1003.17
2019-05-07T08:15:14.533Z,1003.16
2019-05-07T08:20:02.584Z,1003.1
2019-05-07T08:25:02.023Z,1003.11
2019-05-07T08:30:02.920Z,1002.99
2019-05-07T08:35:02.335Z,1003
2019-05-07T08:40:03.075Z,1003.02
2019-05-07T08:45:02.913Z,1002.95
2019-05-07T08:50:02.920Z,1002.87
2019-05-07T08:55:02.153Z,1002.89
2019-05-07T09:00:04.487Z,1002.92
2019-05-07T09:05:02.949Z,1002.88
2019-05-07T09:10:02.497Z,1002.84
2019-05-07T09:15:02.320Z,1002.73
2019-05-07T09:20:02.614Z,1002.67
2019-05-07T09:25:03.062Z,1002.58
2019-05-07T09:30:02.647Z,1002.53
2019-05-07T09:35:02.374Z,1002.52
2019-05-07T09:40:02.867Z,1002.47
2019-05-07T09:45:01.905Z,1002.4
2019-05-07T09:50:04.587Z,1002.42
2019-05-07T09:55:11.060Z,1002.37
2019-05-07T10:00:02.227Z,1002.36
2019-05-07T10:05:02.437Z,1002.33
2019-05-07T10:10:03.139Z,1002.31
2019-05-07T10:15:03.092Z,1002.34
2019-05-07T10:20:04.463Z,1002.29
2019-05-07T10:25:02.927Z,1002.3
2019-05-07T10:30:02.361Z,1002.23
2019-05-07T10:35:02.301Z,1002.24
2019-05-07T10:40:03.128Z,1002.2
2019-05-07T10:45:03.113Z,1002.16
2019-05-07T10:50:02.866Z,1002.16
2019-05-07T10:55:02.846Z,1002.07
2019-05-07T11:00:03.166Z,1002.03
2019-05-07T11:05:02.307Z,1002.09
2019-05-07T11:10:01.964Z,1002
2019-05-07T11:15:02.154Z,1002.01
2019-05-07T11:20:01.399Z,1001.92
2019-05-07T11:25:03.078Z,1001.88
2019-05-07T11:30:02.692Z,1001.79
2019-05-07T11:35:03.161Z,1001.76
2019-05-07T11:40:03.167Z,1001.69
2019-05-07T11:45:02.189Z,1001.65
2019-05-07T11:50:03.190Z,1001.5
2019-05-07T11:55:03.167Z,1001.5
2019-05-07T12:00:02.770Z,1001.48
2019-05-07T12:05:02.261Z,1001.44
2019-05-07T12:10:04.784Z,1001.43
2019-05-07T12:15:02.477Z,1001.38
2019-05-07T12:20:02.366Z,1001.22
2019-05-07T12:25:02.615Z,1001.19
2019-05-07T12:30:01.827Z,1001.26
2019-05-07T12:35:02.412Z,1001.16
2019-05-07T12:40:01.970Z,1001.14
2019-05-07T12:45:02.297Z,1001.07
2019-05-07T12:50:01.591Z,1001.01
2019-05-07T12:55:03.272Z,1000.98
2019-05-07T13:00:02.141Z,1000.98
2019-05-07T13:05:02.942Z,1000.92
2019-05-07T13:10:02.590Z,1000.91
2019-05-07T13:15:02.951Z,1000.81
2019-05-07T13:20:01.952Z,1000.8
2019-05-07T13:25:02.202Z,1000.78
2019-05-07T13:30:02.527Z,1000.74
2019-05-07T13:35:02.664Z,1000.7
2019-05-07T13:40:02.686Z,1000.67
2019-05-07T13:45:02.831Z,1000.53
2019-05-07T13:50:02.648Z,1000.49
2019-05-07T13:55:01.947Z,1000.47
2019-05-07T14:00:04.978Z,1000.42
2019-05-07T14:05:01.278Z,1000.33
2019-05-07T14:10:02.170Z,1000.38
2019-05-07T14:15:02.197Z,1000.31
2019-05-07T14:20:02.362Z,1000.29
2019-05-07T14:25:01.911Z,1000.11
2019-05-07T14:30:02.743Z,1000.11
2019-05-07T14:35:02.201Z,1000.07
2019-05-07T14:40:02.702Z,1000.05
2019-05-07T14:45:01.964Z,1000.01
2019-05-07T14:50:02.258Z,999.92
2019-05-07T14:55:05.071Z,999.86
2019-05-07T15:00:03.237Z,999.84
2019-05-07T15:05:02.800Z,999.77
2019-05-07T15:10:02.408Z,999.75
2019-05-07T15:15:02.190Z,999.7
2019-05-07T15:20:02.852Z,999.69
2019-05-07T15:25:02.876Z,999.63
2019-05-07T15:30:02.425Z,999.65
2019-05-07T15:35:02.258Z,999.59
2019-05-07T15:40:02.525Z,999.53
2019-05-07T15:45:02.308Z,999.48
2019-05-07T15:50:01.537Z,999.34
2019-05-07T15:55:02.725Z,999.31
2019-05-07T16:00:02.192Z,999.3
2019-05-07T16:05:02.203Z,999.24
2019-05-07T16:10:01.984Z,999.22
2019-05-07T16:15:03.227Z,999.19
2019-05-07T16:20:03.211Z,999.09
2019-05-07T16:25:06.839Z,998.99
2019-05-07T16:30:01.451Z,998.98
2019-05-07T16:35:02.714Z,998.93
2019-05-07T16:40:02.005Z,998.9
2019-05-07T16:45:02.859Z,998.86
2019-05-07T16:50:03.989Z,998.78
2019-05-07T16:55:03.037Z,998.83
2019-05-07T17:00:02.871Z,998.72
2019-05-07T17:05:03.153Z,998.73
2019-05-07T17:10:02.638Z,998.65
2019-05-07T17:15:02.918Z,998.72
2019-05-07T17:20:02.748Z,998.67
2019-05-07T17:25:03.172Z,998.65
2019-05-07T17:30:02.960Z,998.54
2019-05-07T17:35:02.602Z,998.52
2019-05-07T17:40:03.107Z,998.49
2019-05-07T17:45:02.868Z,998.5
2019-05-07T17:50:02.150Z,998.47
2019-05-07T17:55:02.183Z,998.48
2019-05-07T18:00:02.237Z,998.43
2019-05-07T18:05:02.887Z,998.44
2019-05-07T18:10:02.431Z,998.37
2019-05-07T18:15:02.294Z,998.31
2019-05-07T18:20:02.521Z,998.34
2019-05-07T18:25:01.902Z,998.3
2019-05-07T18:30:02.773Z,998.24
2019-05-07T18:35:02.417Z,998.28
2019-05-07T18:40:02.559Z,998.24
2019-05-07T18:45:02.194Z,998.21
2019-05-07T18:50:02.836Z,998.12
2019-05-07T18:55:02.703Z,998.15
2019-05-07T19:00:04.767Z,998.05
2019-05-07T19:05:02.758Z,998.05
2019-05-07T19:10:02.677Z,998.1
2019-05-07T19:15:02.912Z,998.12
2019-05-07T19:20:03.411Z,998.05
2019-05-07T19:25:03.008Z,998.05
2019-05-07T19:30:01.282Z,998.07
2019-05-07T19:35:01.466Z,998.08
2019-05-07T19:40:02.131Z,998.06
2019-05-07T19:45:02.672Z,998.09
2019-05-07T19:50:02.145Z,998.12
2019-05-07T19:55:02.446Z,997.99
2019-05-07T20:00:01.804Z,998
2019-05-07T20:05:03.499Z,997.93
2019-05-07T20:10:02.719Z,997.97
2019-05-07T20:15:02.716Z,998.01
2019-05-07T20:20:03.086Z,997.87
2019-05-07T20:25:14.763Z,997.9
2019-05-07T20:30:03.138Z,997.85
2019-05-07T20:35:02.707Z,997.82
2019-05-07T20:40:03.026Z,997.69
2019-05-07T20:45:03.006Z,997.64
2019-05-07T20:50:01.292Z,997.55
2019-05-07T20:55:01.422Z,997.38
2019-05-07T21:00:02.808Z,997.3
2019-05-07T21:05:02.960Z,997.23
2019-05-07T21:10:02.081Z,997.12
2019-05-07T21:15:03.398Z,997.14
2019-05-07T21:20:01.739Z,997.13
2019-05-07T21:25:02.657Z,997.02
2019-05-07T21:30:02.564Z,997
2019-05-07T21:35:01.755Z,997.03
2019-05-07T21:40:02.559Z,997.05
2019-05-07T21:45:02.175Z,996.98
2019-05-07T21:50:02.910Z,996.94
2019-05-07T21:55:02.380Z,996.9
2019-05-07T22:00:02.180Z,996.84
2019-05-07T22:05:02.604Z,996.81
2019-05-07T22:10:02.308Z,996.71
2019-05-07T22:15:04.249Z,996.59
2019-05-07T22:20:03.060Z,996.53
2019-05-07T22:25:04.950Z,996.46
2019-05-07T22:30:02.212Z,996.46
2019-05-07T22:35:02.815Z,996.4
2019-05-07T22:40:02.742Z,996.19
2019-05-07T22:45:02.802Z,996.12
2019-05-07T22:50:02.775Z,996.2
2019-05-07T22:55:01.092Z,996.1
2019-05-07T23:00:02.067Z,995.9
2019-05-07T23:05:02.914Z,995.86
2019-05-07T23:10:02.818Z,995.78
2019-05-07T23:15:02.780Z,995.71
2019-05-07T23:20:01.995Z,995.61
2019-05-07T23:25:01.115Z,995.5
2019-05-07T23:30:02.565Z,995.42
2019-05-07T23:35:02.149Z,995.34
2019-05-07T23:40:03.022Z,995.25
2019-05-07T23:45:01.971Z,995.21
2019-05-07T23:50:02.012Z,995.21
2019-05-07T23:55:02.877Z,995.17
